sensor_id;sensor_type;location;lat;lon;timestamp;pressure;altitude;pressure_sealevel;temperature
33877;BMP180;20166;51.738;7.158;2024-03-02T00:00:08;99577.00;;;8.70
33877;BMP180;20166;51.738;7.158;2024-03-02T00:02:56;99587.00;;;8.70
33877;BMP180;20166;51.738;7.158;2024-03-02T00:05:43;99577.00;;;8.50
33877;BMP180;20166;51.738;7.158;2024-03-02T00:08:31;99571.00;;;8.60
33877;BMP180;20166;51.738;7.158;2024-03-02T00:11:17;99566.00;;;8.60
33877;BMP180;20166;51.738;7.158;2024-03-02T00:14:04;99575.00;;;8.50
33877;BMP180;20166;51.738;7.158;2024-03-02T00:16:52;99581.00;;;8.50
33877;BMP180;20166;51.738;7.158;2024-03-02T00:19:40;99579.00;;;8.40
33877;BMP180;20166;51.738;7.158;2024-03-02T00:22:27;99579.00;;;8.40
33877;BMP180;20166;51.738;7.158;2024-03-02T00:25:13;99577.00;;;8.30
33877;BMP180;20166;51.738;7.158;2024-03-02T00:28:00;99578.00;;;8.40
33877;BMP180;20166;51.738;7.158;2024-03-02T00:31:05;99572.00;;;8.60
33877;BMP180;20166;51.738;7.158;2024-03-02T00:33:54;99575.00;;;8.50
33877;BMP180;20166;51.738;7.158;2024-03-02T00:36:40;99578.00;;;8.40
33877;BMP180;20166;51.738;7.158;2024-03-02T00:39:26;99565.00;;;8.50
33877;BMP180;20166;51.738;7.158;2024-03-02T00:42:13;99564.00;;;8.50
33877;BMP180;20166;51.738;7.158;2024-03-02T00:44:59;99561.00;;;8.60
33877;BMP180;20166;51.738;7.158;2024-03-02T00:47:46;99549.00;;;8.70
33877;BMP180;20166;51.738;7.158;2024-03-02T00:50:33;99550.00;;;8.80
33877;BMP180;20166;51.738;7.158;2024-03-02T00:53:23;99564.00;;;8.80
33877;BMP180;20166;51.738;7.158;2024-03-02T00:56:10;99539.00;;;8.80
33877;BMP180;20166;51.738;7.158;2024-03-02T00:58:57;99542.00;;;8.80
33877;BMP180;20166;51.738;7.158;2024-03-02T01:01:44;99543.00;;;8.80
33877;BMP180;20166;51.738;7.158;2024-03-02T01:04:30;99538.00;;;8.90
33877;BMP180;20166;51.738;7.158;2024-03-02T01:07:18;99540.00;;;8.90
33877;BMP180;20166;51.738;7.158;2024-03-02T01:10:05;99535.00;;;8.90
33877;BMP180;20166;51.738;7.158;2024-03-02T01:12:52;99523.00;;;8.90
33877;BMP180;20166;51.738;7.158;2024-03-02T01:15:39;99536.00;;;8.80
33877;BMP180;20166;51.738;7.158;2024-03-02T01:18:26;99541.00;;;8.80
33877;BMP180;20166;51.738;7.158;2024-03-02T01:21:12;99536.00;;;8.60
33877;BMP180;20166;51.738;7.158;2024-03-02T01:24:00;99542.00;;;8.40
33877;BMP180;20166;51.738;7.158;2024-03-02T01:26:47;99540.00;;;8.30
33877;BMP180;20166;51.738;7.158;2024-03-02T01:29:33;99531.00;;;8.30
33877;BMP180;20166;51.738;7.158;2024-03-02T01:32:20;99530.00;;;8.30
33877;BMP180;20166;51.738;7.158;2024-03-02T01:35:07;99526.00;;;8.40
33877;BMP180;20166;51.738;7.158;2024-03-02T01:37:54;99527.00;;;8.50
33877;BMP180;20166;51.738;7.158;2024-03-02T01:40:42;99522.00;;;8.50
33877;BMP180;20166;51.738;7.158;2024-03-02T01:43:29;99526.00;;;8.60
33877;BMP180;20166;51.738;7.158;2024-03-02T01:46:15;99521.00;;;8.60
33877;BMP180;20166;51.738;7.158;2024-03-02T01:49:02;99527.00;;;8.50
33877;BMP180;20166;51.738;7.158;2024-03-02T01:51:49;99529.00;;;8.40
33877;BMP180;20166;51.738;7.158;2024-03-02T01:54:36;99515.00;;;8.30
33877;BMP180;20166;51.738;7.158;2024-03-02T01:57:24;99523.00;;;8.20
33877;BMP180;20166;51.738;7.158;2024-03-02T02:00:12;99519.00;;;8.30
33877;BMP180;20166;51.738;7.158;2024-03-02T02:02:58;99520.00;;;8.20
33877;BMP180;20166;51.738;7.158;2024-03-02T02:05:47;99524.00;;;8.30
33877;BMP180;20166;51.738;7.158;2024-03-02T02:08:33;99515.00;;;8.30
33877;BMP180;20166;51.738;7.158;2024-03-02T02:11:20;99508.00;;;8.20
33877;BMP180;20166;51.738;7.158;2024-03-02T02:14:07;99516.00;;;8.10
33877;BMP180;20166;51.738;7.158;2024-03-02T02:16:54;99519.00;;;8.00
33877;BMP180;20166;51.738;7.158;2024-03-02T02:19:41;99516.00;;;7.90
33877;BMP180;20166;51.738;7.158;2024-03-02T02:22:29;99513.00;;;7.80
33877;BMP180;20166;51.738;7.158;2024-03-02T02:25:15;99515.00;;;7.80
33877;BMP180;20166;51.738;7.158;2024-03-02T02:28:01;99520.00;;;7.80
33877;BMP180;20166;51.738;7.158;2024-03-02T02:30:48;99513.00;;;7.80
33877;BMP180;20166;51.738;7.158;2024-03-02T02:33:39;99511.00;;;7.80
33877;BMP180;20166;51.738;7.158;2024-03-02T02:36:25;99509.00;;;7.80
33877;BMP180;20166;51.738;7.158;2024-03-02T02:39:15;99504.00;;;7.80
33877;BMP180;20166;51.738;7.158;2024-03-02T02:42:03;99511.00;;;7.80
33877;BMP180;20166;51.738;7.158;2024-03-02T02:44:50;99509.00;;;7.80
33877;BMP180;20166;51.738;7.158;2024-03-02T02:47:36;99498.00;;;7.80
33877;BMP180;20166;51.738;7.158;2024-03-02T02:50:23;99487.00;;;7.80
33877;BMP180;20166;51.738;7.158;2024-03-02T02:53:09;99496.00;;;7.70
33877;BMP180;20166;51.738;7.158;2024-03-02T02:55:57;99495.00;;;7.80
33877;BMP180;20166;51.738;7.158;2024-03-02T02:58:43;99493.00;;;7.80
33877;BMP180;20166;51.738;7.158;2024-03-02T03:01:30;99505.00;;;7.80
33877;BMP180;20166;51.738;7.158;2024-03-02T03:04:16;99499.00;;;7.90
33877;BMP180;20166;51.738;7.158;2024-03-02T03:07:02;99499.00;;;7.90
33877;BMP180;20166;51.738;7.158;2024-03-02T03:09:50;99497.00;;;7.80
33877;BMP180;20166;51.738;7.158;2024-03-02T03:12:38;99498.00;;;7.80
33877;BMP180;20166;51.738;7.158;2024-03-02T03:15:26;99491.00;;;7.80
33877;BMP180;20166;51.738;7.158;2024-03-02T03:18:12;99495.00;;;7.80
33877;BMP180;20166;51.738;7.158;2024-03-02T03:20:58;99487.00;;;7.80
33877;BMP180;20166;51.738;7.158;2024-03-02T03:23:45;99485.00;;;7.80
33877;BMP180;20166;51.738;7.158;2024-03-02T03:26:31;99502.00;;;7.80
33877;BMP180;20166;51.738;7.158;2024-03-02T03:29:19;99489.00;;;7.80
33877;BMP180;20166;51.738;7.158;2024-03-02T03:32:06;99489.00;;;7.90
33877;BMP180;20166;51.738;7.158;2024-03-02T03:34:52;99479.00;;;8.00
33877;BMP180;20166;51.738;7.158;2024-03-02T03:37:39;99490.00;;;8.00
33877;BMP180;20166;51.738;7.158;2024-03-02T03:40:25;99483.00;;;8.00
33877;BMP180;20166;51.738;7.158;2024-03-02T03:43:11;99493.00;;;7.90
33877;BMP180;20166;51.738;7.158;2024-03-02T03:45:59;99490.00;;;7.80
33877;BMP180;20166;51.738;7.158;2024-03-02T03:48:46;99486.00;;;7.60
33877;BMP180;20166;51.738;7.158;2024-03-02T03:51:32;99496.00;;;7.50
33877;BMP180;20166;51.738;7.158;2024-03-02T03:54:19;99493.00;;;7.60
33877;BMP180;20166;51.738;7.158;2024-03-02T03:57:05;99490.00;;;7.40
33877;BMP180;20166;51.738;7.158;2024-03-02T03:59:52;99499.00;;;7.40
33877;BMP180;20166;51.738;7.158;2024-03-02T04:02:39;99494.00;;;7.40
33877;BMP180;20166;51.738;7.158;2024-03-02T04:05:26;99502.00;;;7.40
33877;BMP180;20166;51.738;7.158;2024-03-02T04:08:12;99495.00;;;7.20
33877;BMP180;20166;51.738;7.158;2024-03-02T04:10:59;99504.00;;;7.30
33877;BMP180;20166;51.738;7.158;2024-03-02T04:13:45;99505.00;;;7.30
33877;BMP180;20166;51.738;7.158;2024-03-02T04:16:32;99505.00;;;7.30
33877;BMP180;20166;51.738;7.158;2024-03-02T04:19:20;99502.00;;;7.30
33877;BMP180;20166;51.738;7.158;2024-03-02T04:22:06;99494.00;;;7.40
33877;BMP180;20166;51.738;7.158;2024-03-02T04:25:06;99493.00;;;7.30
33877;BMP180;20166;51.738;7.158;2024-03-02T04:27:52;99502.00;;;7.30
33877;BMP180;20166;51.738;7.158;2024-03-02T04:30:38;99495.00;;;7.30
33877;BMP180;20166;51.738;7.158;2024-03-02T04:33:25;99509.00;;;7.20
33877;BMP180;20166;51.738;7.158;2024-03-02T04:36:13;99500.00;;;7.20
33877;BMP180;20166;51.738;7.158;2024-03-02T04:38:59;99513.00;;;7.20
33877;BMP180;20166;51.738;7.158;2024-03-02T04:41:46;99504.00;;;7.10
33877;BMP180;20166;51.738;7.158;2024-03-02T04:44:32;99511.00;;;7.10
33877;BMP180;20166;51.738;7.158;2024-03-02T04:47:19;99514.00;;;7.10
33877;BMP180;20166;51.738;7.158;2024-03-02T04:50:06;99517.00;;;7.00
33877;BMP180;20166;51.738;7.158;2024-03-02T04:52:54;99526.00;;;7.00
33877;BMP180;20166;51.738;7.158;2024-03-02T04:55:41;99537.00;;;6.90
33877;BMP180;20166;51.738;7.158;2024-03-02T04:58:45;99536.00;;;6.90
33877;BMP180;20166;51.738;7.158;2024-03-02T05:01:32;99534.00;;;6.90
33877;BMP180;20166;51.738;7.158;2024-03-02T05:04:18;99526.00;;;6.90
33877;BMP180;20166;51.738;7.158;2024-03-02T05:07:05;99530.00;;;6.80
33877;BMP180;20166;51.738;7.158;2024-03-02T05:09:53;99525.00;;;6.80
33877;BMP180;20166;51.738;7.158;2024-03-02T05:12:39;99528.00;;;6.70
33877;BMP180;20166;51.738;7.158;2024-03-02T05:15:45;99544.00;;;6.70
33877;BMP180;20166;51.738;7.158;2024-03-02T05:18:32;99534.00;;;6.70
33877;BMP180;20166;51.738;7.158;2024-03-02T05:21:18;99546.00;;;6.60
33877;BMP180;20166;51.738;7.158;2024-03-02T05:24:05;99546.00;;;6.40
33877;BMP180;20166;51.738;7.158;2024-03-02T05:26:52;99539.00;;;6.40
33877;BMP180;20166;51.738;7.158;2024-03-02T05:29:39;99534.00;;;6.40
33877;BMP180;20166;51.738;7.158;2024-03-02T05:32:25;99519.00;;;6.40
33877;BMP180;20166;51.738;7.158;2024-03-02T05:35:12;99526.00;;;6.40
33877;BMP180;20166;51.738;7.158;2024-03-02T05:37:58;99539.00;;;6.30
33877;BMP180;20166;51.738;7.158;2024-03-02T05:40:45;99543.00;;;6.30
33877;BMP180;20166;51.738;7.158;2024-03-02T05:43:33;99548.00;;;6.30
33877;BMP180;20166;51.738;7.158;2024-03-02T05:46:19;99546.00;;;6.20
33877;BMP180;20166;51.738;7.158;2024-03-02T05:49:06;99564.00;;;6.30
33877;BMP180;20166;51.738;7.158;2024-03-02T05:51:52;99546.00;;;6.20
33877;BMP180;20166;51.738;7.158;2024-03-02T05:54:39;99548.00;;;6.20
33877;BMP180;20166;51.738;7.158;2024-03-02T05:57:25;99543.00;;;6.10
33877;BMP180;20166;51.738;7.158;2024-03-02T06:00:32;99539.00;;;6.00
33877;BMP180;20166;51.738;7.158;2024-03-02T06:03:18;99547.00;;;6.10
33877;BMP180;20166;51.738;7.158;2024-03-02T06:06:04;99556.00;;;6.00
33877;BMP180;20166;51.738;7.158;2024-03-02T06:08:51;99556.00;;;6.00
33877;BMP180;20166;51.738;7.158;2024-03-02T06:11:39;99563.00;;;5.90
33877;BMP180;20166;51.738;7.158;2024-03-02T06:14:26;99562.00;;;5.90
33877;BMP180;20166;51.738;7.158;2024-03-02T06:17:14;99562.00;;;5.90
33877;BMP180;20166;51.738;7.158;2024-03-02T06:20:00;99567.00;;;6.00
33877;BMP180;20166;51.738;7.158;2024-03-02T06:22:47;99564.00;;;6.00
33877;BMP180;20166;51.738;7.158;2024-03-02T06:25:33;99556.00;;;5.90
33877;BMP180;20166;51.738;7.158;2024-03-02T06:28:20;99555.00;;;5.90
33877;BMP180;20166;51.738;7.158;2024-03-02T06:31:06;99561.00;;;5.90
33877;BMP180;20166;51.738;7.158;2024-03-02T06:33:54;99575.00;;;5.90
33877;BMP180;20166;51.738;7.158;2024-03-02T06:36:40;99583.00;;;5.90
33877;BMP180;20166;51.738;7.158;2024-03-02T06:39:27;99584.00;;;5.80
33877;BMP180;20166;51.738;7.158;2024-03-02T06:42:14;99589.00;;;5.80
33877;BMP180;20166;51.738;7.158;2024-03-02T06:45:01;99597.00;;;5.90
33877;BMP180;20166;51.738;7.158;2024-03-02T06:47:47;99601.00;;;5.90
33877;BMP180;20166;51.738;7.158;2024-03-02T06:50:35;99596.00;;;5.80
33877;BMP180;20166;51.738;7.158;2024-03-02T06:53:21;99602.00;;;6.00
33877;BMP180;20166;51.738;7.158;2024-03-02T06:56:07;99595.00;;;6.00
33877;BMP180;20166;51.738;7.158;2024-03-02T06:58:54;99605.00;;;6.00
33877;BMP180;20166;51.738;7.158;2024-03-02T07:01:40;99602.00;;;6.10
33877;BMP180;20166;51.738;7.158;2024-03-02T07:04:28;99604.00;;;6.00
33877;BMP180;20166;51.738;7.158;2024-03-02T07:07:16;99603.00;;;6.10
33877;BMP180;20166;51.738;7.158;2024-03-02T07:10:03;99603.00;;;6.10
33877;BMP180;20166;51.738;7.158;2024-03-02T07:12:49;99610.00;;;6.20
33877;BMP180;20166;51.738;7.158;2024-03-02T07:15:35;99622.00;;;6.30
33877;BMP180;20166;51.738;7.158;2024-03-02T07:18:50;99617.00;;;6.40
33877;BMP180;20166;51.738;7.158;2024-03-02T07:21:37;99625.00;;;6.50
33877;BMP180;20166;51.738;7.158;2024-03-02T07:24:25;99620.00;;;6.60
33877;BMP180;20166;51.738;7.158;2024-03-02T07:27:12;99626.00;;;6.80
33877;BMP180;20166;51.738;7.158;2024-03-02T07:29:59;99626.00;;;6.80
33877;BMP180;20166;51.738;7.158;2024-03-02T07:32:46;99645.00;;;6.90
33877;BMP180;20166;51.738;7.158;2024-03-02T07:35:36;99642.00;;;6.90
33877;BMP180;20166;51.738;7.158;2024-03-02T07:38:23;99626.00;;;7.10
33877;BMP180;20166;51.738;7.158;2024-03-02T07:41:10;99637.00;;;7.30
33877;BMP180;20166;51.738;7.158;2024-03-02T07:43:57;99630.00;;;7.50
33877;BMP180;20166;51.738;7.158;2024-03-02T07:46:46;99630.00;;;7.70
33877;BMP180;20166;51.738;7.158;2024-03-02T07:49:34;99626.00;;;8.00
33877;BMP180;20166;51.738;7.158;2024-03-02T07:52:21;99621.00;;;8.10
33877;BMP180;20166;51.738;7.158;2024-03-02T07:55:08;99634.00;;;8.20
33877;BMP180;20166;51.738;7.158;2024-03-02T07:57:56;99641.00;;;8.40
33877;BMP180;20166;51.738;7.158;2024-03-02T08:00:42;99638.00;;;8.70
33877;BMP180;20166;51.738;7.158;2024-03-02T08:03:29;99638.00;;;8.90
33877;BMP180;20166;51.738;7.158;2024-03-02T08:06:17;99636.00;;;9.10
33877;BMP180;20166;51.738;7.158;2024-03-02T08:09:06;99643.00;;;9.20
33877;BMP180;20166;51.738;7.158;2024-03-02T08:11:55;99653.00;;;9.30
33877;BMP180;20166;51.738;7.158;2024-03-02T08:14:44;99640.00;;;9.40
33877;BMP180;20166;51.738;7.158;2024-03-02T08:17:30;99649.00;;;9.40
33877;BMP180;20166;51.738;7.158;2024-03-02T08:20:19;99653.00;;;9.50
33877;BMP180;20166;51.738;7.158;2024-03-02T08:23:06;99651.00;;;9.50
33877;BMP180;20166;51.738;7.158;2024-03-02T08:25:53;99650.00;;;9.60
33877;BMP180;20166;51.738;7.158;2024-03-02T08:28:39;99653.00;;;9.70
33877;BMP180;20166;51.738;7.158;2024-03-02T08:31:28;99660.00;;;9.80
33877;BMP180;20166;51.738;7.158;2024-03-02T08:34:14;99672.00;;;9.80
33877;BMP180;20166;51.738;7.158;2024-03-02T08:37:01;99664.00;;;10.00
33877;BMP180;20166;51.738;7.158;2024-03-02T08:39:47;99682.00;;;10.00
33877;BMP180;20166;51.738;7.158;2024-03-02T08:42:34;99665.00;;;10.00
33877;BMP180;20166;51.738;7.158;2024-03-02T08:45:21;99674.00;;;10.00
33877;BMP180;20166;51.738;7.158;2024-03-02T08:48:09;99676.00;;;10.10
33877;BMP180;20166;51.738;7.158;2024-03-02T08:50:55;99671.00;;;10.10
33877;BMP180;20166;51.738;7.158;2024-03-02T08:53:41;99678.00;;;10.30
33877;BMP180;20166;51.738;7.158;2024-03-02T08:56:28;99670.00;;;10.30
33877;BMP180;20166;51.738;7.158;2024-03-02T08:59:15;99666.00;;;10.40
33877;BMP180;20166;51.738;7.158;2024-03-02T09:02:02;99670.00;;;10.50
33877;BMP180;20166;51.738;7.158;2024-03-02T09:04:50;99676.00;;;10.50
33877;BMP180;20166;51.738;7.158;2024-03-02T09:07:36;99675.00;;;10.50
33877;BMP180;20166;51.738;7.158;2024-03-02T09:10:23;99670.00;;;10.60
33877;BMP180;20166;51.738;7.158;2024-03-02T09:13:13;99670.00;;;10.60
33877;BMP180;20166;51.738;7.158;2024-03-02T09:15:59;99668.00;;;10.80
33877;BMP180;20166;51.738;7.158;2024-03-02T09:18:46;99677.00;;;10.90
33877;BMP180;20166;51.738;7.158;2024-03-02T09:21:33;99685.00;;;10.90
33877;BMP180;20166;51.738;7.158;2024-03-02T09:24:20;99681.00;;;11.00
33877;BMP180;20166;51.738;7.158;2024-03-02T09:27:06;99691.00;;;11.20
33877;BMP180;20166;51.738;7.158;2024-03-02T09:29:53;99692.00;;;11.20
33877;BMP180;20166;51.738;7.158;2024-03-02T09:32:39;99701.00;;;11.20
33877;BMP180;20166;51.738;7.158;2024-03-02T09:35:26;99694.00;;;11.30
33877;BMP180;20166;51.738;7.158;2024-03-02T09:38:13;99687.00;;;11.40
33877;BMP180;20166;51.738;7.158;2024-03-02T09:41:00;99690.00;;;11.50
33877;BMP180;20166;51.738;7.158;2024-03-02T09:43:47;99685.00;;;11.50
33877;BMP180;20166;51.738;7.158;2024-03-02T09:46:33;99692.00;;;11.50
33877;BMP180;20166;51.738;7.158;2024-03-02T09:49:21;99685.00;;;11.60
33877;BMP180;20166;51.738;7.158;2024-03-02T09:52:07;99694.00;;;11.60
33877;BMP180;20166;51.738;7.158;2024-03-02T09:54:55;99679.00;;;11.70
33877;BMP180;20166;51.738;7.158;2024-03-02T09:57:42;99672.00;;;11.80
33877;BMP180;20166;51.738;7.158;2024-03-02T10:00:28;99677.00;;;11.80
33877;BMP180;20166;51.738;7.158;2024-03-02T10:03:15;99686.00;;;11.90
33877;BMP180;20166;51.738;7.158;2024-03-02T10:06:23;99682.00;;;11.90
33877;BMP180;20166;51.738;7.158;2024-03-02T10:09:10;99671.00;;;12.10
33877;BMP180;20166;51.738;7.158;2024-03-02T10:12:03;99678.00;;;12.20
33877;BMP180;20166;51.738;7.158;2024-03-02T10:15:03;99673.00;;;12.40
33877;BMP180;20166;51.738;7.158;2024-03-02T10:17:49;99678.00;;;12.60
33877;BMP180;20166;51.738;7.158;2024-03-02T10:20:36;99686.00;;;12.60
33877;BMP180;20166;51.738;7.158;2024-03-02T10:23:22;99686.00;;;12.70
33877;BMP180;20166;51.738;7.158;2024-03-02T10:26:16;99682.00;;;12.70
33877;BMP180;20166;51.738;7.158;2024-03-02T10:29:04;99678.00;;;12.60
33877;BMP180;20166;51.738;7.158;2024-03-02T10:31:50;99666.00;;;12.70
33877;BMP180;20166;51.738;7.158;2024-03-02T10:34:38;99667.00;;;12.80
33877;BMP180;20166;51.738;7.158;2024-03-02T10:37:25;99676.00;;;12.90
33877;BMP180;20166;51.738;7.158;2024-03-02T10:40:13;99669.00;;;13.10
33877;BMP180;20166;51.738;7.158;2024-03-02T10:43:01;99666.00;;;13.10
33877;BMP180;20166;51.738;7.158;2024-03-02T10:45:52;99669.00;;;13.20
33877;BMP180;20166;51.738;7.158;2024-03-02T10:48:41;99665.00;;;13.40
33877;BMP180;20166;51.738;7.158;2024-03-02T10:51:30;99667.00;;;13.40
33877;BMP180;20166;51.738;7.158;2024-03-02T10:54:17;99668.00;;;13.40
33877;BMP180;20166;51.738;7.158;2024-03-02T10:57:11;99668.00;;;13.40
33877;BMP180;20166;51.738;7.158;2024-03-02T11:00:03;99668.00;;;13.60
33877;BMP180;20166;51.738;7.158;2024-03-02T11:02:54;99669.00;;;13.70
33877;BMP180;20166;51.738;7.158;2024-03-02T11:05:44;99649.00;;;13.80
33877;BMP180;20166;51.738;7.158;2024-03-02T11:08:30;99664.00;;;13.90
33877;BMP180;20166;51.738;7.158;2024-03-02T11:11:22;99668.00;;;14.00
33877;BMP180;20166;51.738;7.158;2024-03-02T11:14:14;99667.00;;;14.10
33877;BMP180;20166;51.738;7.158;2024-03-02T11:17:03;99668.00;;;14.20
33877;BMP180;20166;51.738;7.158;2024-03-02T11:19:51;99669.00;;;14.50
33877;BMP180;20166;51.738;7.158;2024-03-02T11:22:38;99668.00;;;14.50
33877;BMP180;20166;51.738;7.158;2024-03-02T11:25:26;99673.00;;;14.50
33877;BMP180;20166;51.738;7.158;2024-03-02T11:28:13;99672.00;;;14.40
33877;BMP180;20166;51.738;7.158;2024-03-02T11:31:00;99667.00;;;14.60
33877;BMP180;20166;51.738;7.158;2024-03-02T11:33:46;99664.00;;;14.60
33877;BMP180;20166;51.738;7.158;2024-03-02T11:36:35;99660.00;;;14.80
33877;BMP180;20166;51.738;7.158;2024-03-02T11:39:21;99661.00;;;14.90
33877;BMP180;20166;51.738;7.158;2024-03-02T11:42:07;99655.00;;;15.10
33877;BMP180;20166;51.738;7.158;2024-03-02T11:44:56;99655.00;;;15.00
33877;BMP180;20166;51.738;7.158;2024-03-02T11:47:46;99653.00;;;15.10
33877;BMP180;20166;51.738;7.158;2024-03-02T11:50:40;99642.00;;;15.20
33877;BMP180;20166;51.738;7.158;2024-03-02T11:53:28;99643.00;;;15.20
33877;BMP180;20166;51.738;7.158;2024-03-02T11:56:20;99646.00;;;15.40
33877;BMP180;20166;51.738;7.158;2024-03-02T11:59:07;99647.00;;;15.40
33877;BMP180;20166;51.738;7.158;2024-03-02T12:01:54;99632.00;;;15.60
33877;BMP180;20166;51.738;7.158;2024-03-02T12:04:40;99631.00;;;15.60
33877;BMP180;20166;51.738;7.158;2024-03-02T12:07:27;99635.00;;;15.70
33877;BMP180;20166;51.738;7.158;2024-03-02T12:10:15;99632.00;;;15.70
33877;BMP180;20166;51.738;7.158;2024-03-02T12:13:03;99628.00;;;15.70
33877;BMP180;20166;51.738;7.158;2024-03-02T12:15:53;99626.00;;;15.90
33877;BMP180;20166;51.738;7.158;2024-03-02T12:18:41;99630.00;;;16.00
33877;BMP180;20166;51.738;7.158;2024-03-02T12:21:28;99617.00;;;16.10
33877;BMP180;20166;51.738;7.158;2024-03-02T12:24:15;99620.00;;;16.20
33877;BMP180;20166;51.738;7.158;2024-03-02T12:27:04;99623.00;;;16.30
33877;BMP180;20166;51.738;7.158;2024-03-02T12:29:51;99614.00;;;16.10
33877;BMP180;20166;51.738;7.158;2024-03-02T12:32:38;99614.00;;;16.20
33877;BMP180;20166;51.738;7.158;2024-03-02T12:35:25;99609.00;;;16.20
33877;BMP180;20166;51.738;7.158;2024-03-02T12:38:12;99610.00;;;16.30
33877;BMP180;20166;51.738;7.158;2024-03-02T12:40:58;99602.00;;;16.20
33877;BMP180;20166;51.738;7.158;2024-03-02T12:43:46;99606.00;;;16.30
33877;BMP180;20166;51.738;7.158;2024-03-02T12:46:33;99609.00;;;16.30
33877;BMP180;20166;51.738;7.158;2024-03-02T12:49:22;99606.00;;;16.30
33877;BMP180;20166;51.738;7.158;2024-03-02T12:52:08;99604.00;;;16.10
33877;BMP180;20166;51.738;7.158;2024-03-02T12:54:56;99605.00;;;16.10
33877;BMP180;20166;51.738;7.158;2024-03-02T12:57:43;99608.00;;;16.10
33877;BMP180;20166;51.738;7.158;2024-03-02T13:00:35;99609.00;;;16.10
33877;BMP180;20166;51.738;7.158;2024-03-02T13:03:21;99598.00;;;16.40
33877;BMP180;20166;51.738;7.158;2024-03-02T13:06:08;99586.00;;;16.50
33877;BMP180;20166;51.738;7.158;2024-03-02T13:08:55;99583.00;;;16.40
33877;BMP180;20166;51.738;7.158;2024-03-02T13:11:41;99590.00;;;16.50
33877;BMP180;20166;51.738;7.158;2024-03-02T13:14:28;99586.00;;;16.60
33877;BMP180;20166;51.738;7.158;2024-03-02T13:17:17;99596.00;;;16.50
33877;BMP180;20166;51.738;7.158;2024-03-02T13:20:04;99592.00;;;16.40
33877;BMP180;20166;51.738;7.158;2024-03-02T13:22:53;99592.00;;;16.30
33877;BMP180;20166;51.738;7.158;2024-03-02T13:25:40;99592.00;;;16.20
33877;BMP180;20166;51.738;7.158;2024-03-02T13:28:27;99596.00;;;16.20
33877;BMP180;20166;51.738;7.158;2024-03-02T13:31:14;99583.00;;;16.40
33877;BMP180;20166;51.738;7.158;2024-03-02T13:34:02;99593.00;;;16.60
33877;BMP180;20166;51.738;7.158;2024-03-02T13:36:48;99584.00;;;16.80
33877;BMP180;20166;51.738;7.158;2024-03-02T13:39:35;99580.00;;;17.00
33877;BMP180;20166;51.738;7.158;2024-03-02T13:42:25;99578.00;;;17.00
33877;BMP180;20166;51.738;7.158;2024-03-02T13:45:12;99581.00;;;16.90
33877;BMP180;20166;51.738;7.158;2024-03-02T13:48:00;99573.00;;;16.80
33877;BMP180;20166;51.738;7.158;2024-03-02T13:50:48;99565.00;;;16.80
33877;BMP180;20166;51.738;7.158;2024-03-02T13:53:35;99568.00;;;16.80
33877;BMP180;20166;51.738;7.158;2024-03-02T13:56:21;99574.00;;;16.90
33877;BMP180;20166;51.738;7.158;2024-03-02T13:59:08;99578.00;;;17.00
33877;BMP180;20166;51.738;7.158;2024-03-02T14:01:55;99568.00;;;17.00
33877;BMP180;20166;51.738;7.158;2024-03-02T14:04:41;99564.00;;;16.80
33877;BMP180;20166;51.738;7.158;2024-03-02T14:07:29;99574.00;;;16.50
33877;BMP180;20166;51.738;7.158;2024-03-02T14:10:15;99572.00;;;16.30
33877;BMP180;20166;51.738;7.158;2024-03-02T14:13:03;99565.00;;;16.30
33877;BMP180;20166;51.738;7.158;2024-03-02T14:15:50;99568.00;;;16.20
33877;BMP180;20166;51.738;7.158;2024-03-02T14:18:36;99568.00;;;16.30
33877;BMP180;20166;51.738;7.158;2024-03-02T14:21:23;99565.00;;;16.30
33877;BMP180;20166;51.738;7.158;2024-03-02T14:24:11;99552.00;;;16.30
33877;BMP180;20166;51.738;7.158;2024-03-02T14:26:57;99568.00;;;16.30
33877;BMP180;20166;51.738;7.158;2024-03-02T14:29:59;99580.00;;;16.40
33877;BMP180;20166;51.738;7.158;2024-03-02T14:32:45;99576.00;;;16.20
33877;BMP180;20166;51.738;7.158;2024-03-02T14:35:32;99578.00;;;16.10
33877;BMP180;20166;51.738;7.158;2024-03-02T14:38:19;99567.00;;;15.90
33877;BMP180;20166;51.738;7.158;2024-03-02T14:41:07;99566.00;;;15.90
33877;BMP180;20166;51.738;7.158;2024-03-02T14:43:53;99566.00;;;15.80
33877;BMP180;20166;51.738;7.158;2024-03-02T14:46:39;99572.00;;;15.70
33877;BMP180;20166;51.738;7.158;2024-03-02T14:49:28;99553.00;;;15.60
33877;BMP180;20166;51.738;7.158;2024-03-02T14:52:14;99549.00;;;15.50
33877;BMP180;20166;51.738;7.158;2024-03-02T14:55:02;99557.00;;;15.50
33877;BMP180;20166;51.738;7.158;2024-03-02T14:57:54;99554.00;;;15.60
33877;BMP180;20166;51.738;7.158;2024-03-02T15:00:40;99556.00;;;15.70
33877;BMP180;20166;51.738;7.158;2024-03-02T15:03:27;99562.00;;;15.70
33877;BMP180;20166;51.738;7.158;2024-03-02T15:06:13;99554.00;;;15.80
33877;BMP180;20166;51.738;7.158;2024-03-02T15:08:59;99565.00;;;15.90
33877;BMP180;20166;51.738;7.158;2024-03-02T15:11:46;99552.00;;;16.10
33877;BMP180;20166;51.738;7.158;2024-03-02T15:14:34;99550.00;;;16.10
33877;BMP180;20166;51.738;7.158;2024-03-02T15:17:23;99550.00;;;16.10
33877;BMP180;20166;51.738;7.158;2024-03-02T15:20:11;99549.00;;;16.20
33877;BMP180;20166;51.738;7.158;2024-03-02T15:22:58;99546.00;;;16.00
33877;BMP180;20166;51.738;7.158;2024-03-02T15:25:44;99548.00;;;16.00
33877;BMP180;20166;51.738;7.158;2024-03-02T15:28:31;99537.00;;;15.70
33877;BMP180;20166;51.738;7.158;2024-03-02T15:31:18;99527.00;;;15.60
33877;BMP180;20166;51.738;7.158;2024-03-02T15:34:05;99530.00;;;15.40
33877;BMP180;20166;51.738;7.158;2024-03-02T15:36:53;99537.00;;;15.50
33877;BMP180;20166;51.738;7.158;2024-03-02T15:39:40;99534.00;;;15.40
33877;BMP180;20166;51.738;7.158;2024-03-02T15:42:26;99538.00;;;15.40
33877;BMP180;20166;51.738;7.158;2024-03-02T15:45:13;99538.00;;;15.30
33877;BMP180;20166;51.738;7.158;2024-03-02T15:48:00;99535.00;;;15.40
33877;BMP180;20166;51.738;7.158;2024-03-02T15:50:47;99542.00;;;15.30
33877;BMP180;20166;51.738;7.158;2024-03-02T15:53:35;99540.00;;;15.30
33877;BMP180;20166;51.738;7.158;2024-03-02T15:56:23;99543.00;;;15.30
33877;BMP180;20166;51.738;7.158;2024-03-02T15:59:09;99537.00;;;15.20
33877;BMP180;20166;51.738;7.158;2024-03-02T16:01:55;99547.00;;;15.20
33877;BMP180;20166;51.738;7.158;2024-03-02T16:04:45;99535.00;;;15.20
33877;BMP180;20166;51.738;7.158;2024-03-02T16:07:31;99528.00;;;15.10
33877;BMP180;20166;51.738;7.158;2024-03-02T16:10:18;99531.00;;;15.00
33877;BMP180;20166;51.738;7.158;2024-03-02T16:13:05;99525.00;;;15.00